»·PEaware :: N792VA KSNA-KIFP

N792VA :: KSNA-KIFP

FLIGHT INFORMATION

Flight Status: Arrived
Operator: Privately registered:
United States
More flights under this callsign
Pilot: Scott M. (16181)
Aircraft: Unknown
(P28U)
More flights by this aircraft type
Origin: KSNA John Wayne-Orange Co
United States
Destination: KIFP Laughlin/Bullhead Intl
United States
More flights between these airports :: More routes between these airports
Route:
File this flight plan on PilotEdge
Remarks:
Altitude:
(Current/Filed)
9,500ft
Speed:
(Current/Filed)
160kts
Departed: 05-Sep-18 04:20 PM
Arrived: 05-Sep-18 05:54 PM
Distance/Time
Traveled:
187nm/1:34
Distance/Time
To Go:
Arrived

Flight Plot

Page will automatically refresh every two minutes.

Flight plan parsing failed; only flown route is shown


Map Options




Map Legend


Flown Route
Filed Route
Departure Airport
Arrival Airport
Navaid (VOR, NDB)
Fix

Horizontal Profiles

Position Reports

Time Latitude Longitude Heading Altitude Ground
Speed
05-Sep-18 16:03 33.673436 -117.865981 118 59ft 0kts
05-Sep-18 16:04 33.673436 -117.865981 118 59ft 0kts
05-Sep-18 16:05 33.673436 -117.865981 118 59ft 0kts
05-Sep-18 16:06 33.673436 -117.865981 118 59ft 0kts
05-Sep-18 16:07 33.673436 -117.865981 118 59ft 0kts
05-Sep-18 16:08 33.673436 -117.865981 118 59ft 0kts
05-Sep-18 16:09 33.673436 -117.865981 118 59ft 0kts
05-Sep-18 16:10 33.673436 -117.865981 118 59ft 0kts
05-Sep-18 16:11 33.673436 -117.865981 118 59ft 0kts
05-Sep-18 16:12 33.673436 -117.865981 118 59ft 0kts
05-Sep-18 16:13 33.673436 -117.865981 118 59ft 0kts
05-Sep-18 16:14 33.673435 -117.865980 119 59ft 0kts
05-Sep-18 16:15 33.673307 -117.865716 125 59ft 5kts
05-Sep-18 16:16 33.673495 -117.866928 317 59ft 5kts
05-Sep-18 16:17 33.675799 -117.866020 27 59ft 12kts
05-Sep-18 16:18 33.679010 -117.863979 28 59ft 13kts
05-Sep-18 16:19 33.679964 -117.863610 304 59ft 0kts
05-Sep-18 16:20 33.679964 -117.863610 304 59ft 0kts
05-Sep-18 16:21 33.679073 -117.864827 202 59ft 37kts
05-Sep-18 16:22 33.661424 -117.874520 205 928ft 80kts
05-Sep-18 16:23 33.649556 -117.857203 91 2284ft 99kts
05-Sep-18 16:24 33.651978 -117.824266 86 3610ft 102kts
05-Sep-18 16:25 33.657004 -117.792430 86 4826ft 104kts
05-Sep-18 16:26 33.662737 -117.758991 78 6150ft 105kts
05-Sep-18 16:27 33.679013 -117.728832 52 7381ft 110kts
05-Sep-18 16:28 33.700375 -117.704176 36 8528ft 106kts
05-Sep-18 16:29 33.723128 -117.679259 40 9234ft 121kts
05-Sep-18 16:30 33.747294 -117.652246 41 9492ft 137kts
05-Sep-18 16:31 33.774271 -117.622106 41 9473ft 131kts
05-Sep-18 16:32 33.800550 -117.592884 41 9471ft 130kts
05-Sep-18 16:33 33.826948 -117.563462 41 9472ft 130kts
05-Sep-18 16:34 33.853210 -117.534165 41 9482ft 130kts
05-Sep-18 16:35 33.879593 -117.504697 41 9481ft 130kts
05-Sep-18 16:36 33.905953 -117.475236 41 9480ft 130kts
05-Sep-18 16:37 33.932278 -117.445785 41 9479ft 130kts
05-Sep-18 16:38 33.958779 -117.416110 41 9481ft 130kts
05-Sep-18 16:39 33.985179 -117.386709 40 9482ft 130kts
05-Sep-18 16:40 34.006071 -117.363397 40 9483ft 130kts
05-Sep-18 16:41 34.030664 -117.335846 41 9487ft 131kts
05-Sep-18 16:42 34.057572 -117.305915 49 9493ft 137kts
05-Sep-18 16:43 34.085173 -117.274660 48 9492ft 140kts
05-Sep-18 16:44 34.112915 -117.243220 49 9490ft 140kts
05-Sep-18 16:45 34.141112 -117.210916 48 9490ft 140kts
05-Sep-18 16:46 34.169358 -117.178956 48 9490ft 140kts
05-Sep-18 16:47 34.197388 -117.147309 48 9490ft 140kts
05-Sep-18 16:48 34.225744 -117.115271 48 9490ft 140kts
05-Sep-18 16:49 34.254137 -117.083169 48 9490ft 141kts
05-Sep-18 16:50 34.282897 -117.050623 48 9489ft 142kts
05-Sep-18 16:51 34.311616 -117.018095 48 9487ft 142kts
05-Sep-18 16:52 34.340458 -116.985376 47 9484ft 142kts
05-Sep-18 16:53 34.369244 -116.952713 47 9480ft 141kts
05-Sep-18 16:54 34.397902 -116.920152 47 9475ft 141kts
05-Sep-18 16:55 34.426256 -116.887907 47 9473ft 140kts
05-Sep-18 16:56 34.454612 -116.855699 45 9473ft 140kts
05-Sep-18 16:57 34.483194 -116.823108 47 9471ft 141kts
05-Sep-18 16:58 34.511797 -116.790468 46 9472ft 141kts
05-Sep-18 16:59 34.540405 -116.757767 47 9472ft 141kts
05-Sep-18 17:00 34.569137 -116.724952 47 9472ft 141kts
05-Sep-18 17:01 34.597734 -116.692237 47 9472ft 141kts
05-Sep-18 17:02 34.626310 -116.659502 47 9471ft 142kts
05-Sep-18 17:03 34.654958 -116.626666 47 9472ft 141kts
05-Sep-18 17:04 34.683508 -116.593906 47 9498ft 140kts
05-Sep-18 17:05 34.711911 -116.561269 47 9501ft 141kts
05-Sep-18 17:06 34.740578 -116.528328 47 9498ft 141kts
05-Sep-18 17:07 34.769100 -116.495495 47 9499ft 141kts
05-Sep-18 17:08 34.796737 -116.461861 68 9490ft 138kts
05-Sep-18 17:09 34.809076 -116.417978 74 9499ft 137kts
05-Sep-18 17:10 34.820840 -116.374023 74 9504ft 137kts
05-Sep-18 17:11 34.832403 -116.330488 75 9520ft 137kts
05-Sep-18 17:12 34.844186 -116.286002 75 9534ft 139kts
05-Sep-18 17:13 34.856128 -116.240815 75 9547ft 140kts
05-Sep-18 17:14 34.868049 -116.195626 75 9561ft 141kts
05-Sep-18 17:15 34.880011 -116.150235 75 9573ft 141kts
05-Sep-18 17:16 34.892021 -116.104515 75 9572ft 142kts
05-Sep-18 17:17 34.904029 -116.058781 75 9571ft 142kts
05-Sep-18 17:18 34.916086 -116.012775 75 9569ft 142kts
05-Sep-18 17:19 34.928180 -115.966554 75 9568ft 143kts
05-Sep-18 17:20 34.940037 -115.920155 75 9566ft 143kts
05-Sep-18 17:21 34.952057 -115.873749 74 9566ft 144kts
05-Sep-18 17:22 34.964193 -115.827082 74 9567ft 144kts
05-Sep-18 17:23 34.975956 -115.781749 75 8954ft 139kts
05-Sep-18 17:24 34.987655 -115.736627 75 7979ft 139kts
05-Sep-18 17:24 34.996954 -115.700901 75 7560ft 119kts
05-Sep-18 17:25 35.007967 -115.658256 74 7568ft 139kts
05-Sep-18 17:26 35.019742 -115.612626 75 7541ft 143kts
05-Sep-18 17:28 35.033712 -115.558249 74 7512ft 145kts
05-Sep-18 17:28 35.043449 -115.520312 74 7493ft 146kts
05-Sep-18 17:29 35.055551 -115.473218 74 7548ft 144kts
05-Sep-18 17:30 35.066839 -115.428965 74 7539ft 147kts
05-Sep-18 17:32 35.081066 -115.373284 74 7541ft 147kts
05-Sep-18 17:32 35.091074 -115.334018 74 7539ft 146kts
05-Sep-18 17:33 35.102991 -115.287079 75 7251ft 149kts
05-Sep-18 17:34 35.115064 -115.239688 75 6381ft 145kts
05-Sep-18 17:35 35.126803 -115.193562 75 5658ft 135kts
05-Sep-18 17:36 35.132332 -115.148671 89 5514ft 137kts
05-Sep-18 17:37 35.134270 -115.103676 90 5509ft 126kts
05-Sep-18 17:38 35.136047 -115.061575 90 5422ft 123kts
05-Sep-18 17:39 35.137413 -115.028859 90 5235ft 124kts
05-Sep-18 17:40 35.139148 -114.987092 90 4931ft 121kts
05-Sep-18 17:41 35.140826 -114.945767 90 4458ft 119kts
05-Sep-18 17:42 35.142513 -114.905764 90 4090ft 115kts
05-Sep-18 17:43 35.144072 -114.866662 91 3764ft 110kts
05-Sep-18 17:44 35.145536 -114.831620 91 3722ft 104kts
05-Sep-18 17:45 35.146893 -114.796730 91 3728ft 102kts
05-Sep-18 17:46 35.149610 -114.762171 72 3825ft 107kts
05-Sep-18 17:47 35.159056 -114.733340 68 3710ft 98kts
05-Sep-18 17:48 35.168790 -114.701464 75 3420ft 100kts
05-Sep-18 17:49 35.177670 -114.670694 73 3069ft 93kts
05-Sep-18 17:50 35.185615 -114.642231 74 2694ft 88kts
05-Sep-18 17:51 35.192519 -114.613743 79 2378ft 85kts
05-Sep-18 17:52 35.197141 -114.585490 90 2019ft 84kts
05-Sep-18 17:53 35.191445 -114.562559 169 1446ft 74kts
05-Sep-18 17:54 35.172534 -114.560631 179 778ft 65kts
05-Sep-18 17:55 35.162273 -114.559110 29 646ft 10kts
05-Sep-18 17:56 35.162501 -114.558952 34 647ft 0kts
05-Sep-18 17:57 35.162236 -114.558521 176 652ft 7kts
05-Sep-18 17:58 35.159538 -114.558190 128 662ft 4kts
05-Sep-18 17:59 35.160321 -114.556086 40 678ft 9kts

Navigation Log

Ident Type
Flight plan parsing failed, navigation log unavailable